logo
Search for airport 
image banner adimage banner adimage banner ad
image banner ad

ESVASS - Vassunda

Located in Knivsta, Sweden

ICAO - , IATA -

Data provided by Airmate  

General information

Coordinates: N59°43'16" E17°43'21"
Elevation is 30 feet MSL.
Magnetic variation is 6° East
View others Airports in Stockholms län

Operational data

Special qualification required
Current time UTC:
Current local time:
Weather at : ESSA - Stockholm/Arlanda ( 13 km )
METAR: ESSA 130550Z 24009KT 9999 BKN008 08/06 Q1010 TEMPO BKN012
TAF: TAF ESSA 130530Z 1306/1406 25012KT 9999 BKN008 PROB40 1307/1310 BKN012 BECMG 1310/1312 BKN020 PROB40 1310/1312 SHRA BKN030CB
View NOTAMs / SUP AIP / TFR affecting this airport [VIEW]
Communications frequencies: [VIEW]

Runways:

RWY identifierQFULength (ft)Width (ft)SurfaceLDA (ft)
29292°195774GRAS
11112°195774GRAS

Airport contact information

Address: Knivsta Sweden

Satellite view of ESVASS